Time,TemperatureF,DewpointF,PressureIn,WindDirection,WindDirectionDegrees,WindSpeedMPH,WindSpeedGustMPH,Humidity,HourlyPrecipIn,Conditions,Clouds,dailyrainin,SoftwareType,DateUTC
2013-04-24 00:00:00,31.0,27.2,29.91,SSW,199,0.0,0.0,86,0.00,,,0.00,VWS V14.01,2013-04-24 05:00:00,
2013-04-24 00:01:00,31.0,27.2,29.91,SSW,199,0.0,0.0,86,0.00,,,0.00,VWS V14.01,2013-04-24 05:01:00,
2013-04-24 00:06:00,30.8,27.0,29.90,SSW,199,0.0,2.0,86,0.00,,,0.00,VWS V14.01,2013-04-24 05:06:00,
2013-04-24 00:11:00,30.6,26.8,29.90,SSW,199,0.0,2.0,86,0.00,,,0.00,VWS V14.01,2013-04-24 05:11:00,
2013-04-24 00:15:00,30.5,26.7,29.91,SSW,199,0.0,2.0,86,0.00,,,0.00,VWS V14.01,2013-04-24 05:15:00,
2013-04-24 00:16:00,30.5,26.7,29.91,SSW,199,1.0,2.0,86,0.00,,,0.00,VWS V14.01,2013-04-24 05:16:00,
2013-04-24 00:21:00,30.6,27.1,29.91,WSW,238,1.0,6.0,87,0.00,,,0.00,VWS V14.01,2013-04-24 05:21:00,
2013-04-24 00:26:00,30.7,26.9,29.90,WSW,237,3.0,6.0,86,0.00,,,0.00,VWS V14.01,2013-04-24 05:26:00,
2013-04-24 00:30:00,30.8,27.0,29.90,WSW,237,2.0,6.0,86,0.00,,,0.00,VWS V14.01,2013-04-24 05:30:00,
2013-04-24 00:31:00,30.8,27.0,29.90,SW,236,4.0,5.0,86,0.00,,,0.00,VWS V14.01,2013-04-24 05:31:00,
2013-04-24 00:36:00,31.0,27.2,29.90,SW,220,4.0,7.0,86,0.00,,,0.00,VWS V14.01,2013-04-24 05:36:00,
2013-04-24 00:41:00,30.9,26.8,29.90,SW,223,3.0,7.0,85,0.00,,,0.00,VWS V14.01,2013-04-24 05:41:00,
2013-04-24 00:45:00,30.7,26.4,29.91,SW,222,2.0,7.0,84,0.00,,,0.00,VWS V14.01,2013-04-24 05:45:00,
2013-04-24 00:46:00,30.6,26.3,29.90,SW,222,3.0,3.0,84,0.00,,,0.00,VWS V14.01,2013-04-24 05:46:00,
2013-04-24 00:51:00,30.7,26.6,29.90,SW,216,1.0,6.0,85,0.00,,,0.00,VWS V14.01,2013-04-24 05:51:00,
2013-04-24 00:56:00,30.9,26.8,29.90,SW,219,7.0,8.0,85,0.00,,,0.00,VWS V14.01,2013-04-24 05:56:00,
2013-04-24 01:00:00,30.7,26.4,29.90,SW,214,6.0,9.0,84,0.00,,,0.00,VWS V14.01,2013-04-24 06:00:00,
2013-04-24 01:01:00,30.7,26.4,29.90,SW,214,8.0,11.0,84,0.00,,,0.00,VWS V14.01,2013-04-24 06:01:00,
2013-04-24 01:06:00,30.7,26.6,29.89,SW,220,5.0,11.0,85,0.00,,,0.00,VWS V14.01,2013-04-24 06:06:00,
2013-04-24 01:11:00,30.7,26.6,29.89,SW,224,7.0,11.0,85,0.00,,,0.00,VWS V14.01,2013-04-24 06:11:00,
2013-04-24 01:15:00,30.7,26.9,29.89,SW,215,9.0,11.0,86,0.00,,,0.00,VWS V14.01,2013-04-24 06:15:00,
2013-04-24 01:16:00,30.7,26.9,29.89,SW,221,8.0,9.0,86,0.00,,,0.00,VWS V14.01,2013-04-24 06:16:00,
2013-04-24 01:21:00,30.8,27.3,29.89,SW,221,7.0,10.0,87,0.00,,,0.00,VWS V14.01,2013-04-24 06:21:00,
2013-04-24 01:26:00,30.7,27.2,29.88,SW,221,6.0,10.0,87,0.00,,,0.00,VWS V14.01,2013-04-24 06:26:00,
2013-04-24 01:30:00,30.7,27.5,29.88,SW,221,7.0,11.0,88,0.00,,,0.00,VWS V14.01,2013-04-24 06:30:00,
2013-04-24 01:31:00,30.7,27.5,29.88,SW,220,8.0,11.0,88,0.00,,,0.00,VWS V14.01,2013-04-24 06:31:00,
2013-04-24 01:36:00,30.6,27.4,29.88,SW,231,9.0,11.0,88,0.00,,,0.00,VWS V14.01,2013-04-24 06:36:00,
2013-04-24 01:41:00,30.5,27.6,29.88,SW,220,8.0,11.0,89,0.00,,,0.00,VWS V14.01,2013-04-24 06:41:00,
2013-04-24 01:45:00,30.4,27.5,29.88,SW,217,5.0,11.0,89,0.00,,,0.00,VWS V14.01,2013-04-24 06:45:00,
2013-04-24 01:46:00,30.4,27.5,29.88,SW,218,6.0,8.0,89,0.00,,,0.00,VWS V14.01,2013-04-24 06:46:00,
2013-04-24 01:51:00,30.2,27.3,29.88,SSW,210,7.0,8.0,89,0.00,,,0.00,VWS V14.01,2013-04-24 06:51:00,
2013-04-24 01:56:00,30.2,27.5,29.87,SW,219,7.0,9.0,90,0.00,,,0.00,VWS V14.01,2013-04-24 06:56:00,
2013-04-24 02:00:00,30.5,27.8,29.87,SSW,208,8.0,13.0,90,0.00,,,0.00,VWS V14.01,2013-04-24 07:00:00,
2013-04-24 02:01:00,30.6,28.2,29.87,SW,217,8.0,10.0,91,0.00,,,0.00,VWS V14.01,2013-04-24 07:01:00,
2013-04-24 02:06:00,30.9,28.5,29.87,SSW,212,4.0,10.0,91,0.00,,,0.00,VWS V14.01,2013-04-24 07:06:00,
2013-04-24 02:11:00,30.9,28.5,29.87,SW,214,6.0,10.0,91,0.00,,,0.00,VWS V14.01,2013-04-24 07:11:00,
2013-04-24 02:15:00,31.0,28.6,29.87,SW,225,3.0,10.0,91,0.00,,,0.00,VWS V14.01,2013-04-24 07:15:00,
2013-04-24 02:16:00,31.0,28.6,29.87,SW,229,5.0,7.0,91,0.00,,,0.00,VWS V14.01,2013-04-24 07:16:00,
2013-04-24 02:21:00,31.0,28.6,29.86,WSW,238,5.0,9.0,91,0.00,,,0.00,VWS V14.01,2013-04-24 07:21:00,
2013-04-24 02:26:00,31.1,28.7,29.86,WSW,251,2.0,11.0,91,0.00,,,0.00,VWS V14.01,2013-04-24 07:26:00,
2013-04-24 02:30:00,31.0,28.6,29.86,WSW,252,3.0,11.0,91,0.00,,,0.00,VWS V14.01,2013-04-24 07:30:00,
2013-04-24 02:31:00,31.0,28.6,29.86,WSW,252,3.0,4.0,91,0.00,,,0.00,VWS V14.01,2013-04-24 07:31:00,
2013-04-24 02:36:00,30.9,28.5,29.86,WSW,253,3.0,6.0,91,0.00,,,0.00,VWS V14.01,2013-04-24 07:36:00,
2013-04-24 02:41:00,30.8,28.4,29.86,WSW,254,2.0,6.0,91,0.00,,,0.00,VWS V14.01,2013-04-24 07:41:00,
2013-04-24 02:45:00,30.7,28.3,29.86,WSW,254,0.0,6.0,91,0.00,,,0.00,VWS V14.01,2013-04-24 07:45:00,
2013-04-24 02:46:00,30.7,28.3,29.86,WSW,254,0.0,0.0,91,0.00,,,0.00,VWS V14.01,2013-04-24 07:46:00,
2013-04-24 02:51:00,30.7,28.3,29.85,WSW,254,0.0,3.0,91,0.00,,,0.00,VWS V14.01,2013-04-24 07:51:00,
2013-04-24 02:56:00,30.7,28.3,29.85,WSW,255,3.0,3.0,91,0.00,,,0.00,VWS V14.01,2013-04-24 07:56:00,
2013-04-24 03:00:00,30.8,28.4,29.85,West,259,3.0,6.0,91,0.00,,,0.00,VWS V14.01,2013-04-24 08:00:00,
2013-04-24 03:01:00,30.8,28.4,29.85,West,259,2.0,3.0,91,0.00,,,0.00,VWS V14.01,2013-04-24 08:01:00,
2013-04-24 03:06:00,30.9,28.5,29.84,West,259,0.0,4.0,91,0.00,,,0.00,VWS V14.01,2013-04-24 08:06:00,
2013-04-24 03:11:00,30.9,28.5,29.84,West,265,4.0,9.0,91,0.00,,,0.00,VWS V14.01,2013-04-24 08:11:00,
2013-04-24 03:15:00,31.0,28.6,29.84,West,270,4.0,9.0,91,0.00,,,0.00,VWS V14.01,2013-04-24 08:15:00,
2013-04-24 03:16:00,31.0,28.6,29.85,West,270,4.0,4.0,91,0.00,,,0.00,VWS V14.01,2013-04-24 08:16:00,
2013-04-24 03:30:00,31.0,28.3,29.84,West,270,2.0,10.0,90,0.00,,,0.00,VWS V14.01,2013-04-24 08:30:00,
2013-04-24 03:45:00,30.4,27.7,29.84,West,270,2.0,5.0,90,0.00,,,0.00,VWS V14.01,2013-04-24 08:45:00,
2013-04-24 04:00:00,31.5,28.8,29.83,West,270,5.0,13.0,90,0.00,,,0.00,VWS V14.01,2013-04-24 09:00:00,
2013-04-24 04:15:00,32.5,28.7,29.83,WSW,248,9.0,20.0,86,0.00,,,0.00,VWS V14.01,2013-04-24 09:15:00,
2013-04-24 04:30:00,31.9,28.1,29.83,WSW,248,9.0,20.0,86,0.00,,,0.00,VWS V14.01,2013-04-24 09:30:00,
2013-04-24 04:45:00,31.7,27.9,29.83,West,270,10.0,17.0,86,0.00,,,0.00,VWS V14.01,2013-04-24 09:45:00,
2013-04-24 05:00:00,31.9,27.2,29.83,West,270,9.0,18.0,83,0.00,,,0.00,VWS V14.01,2013-04-24 10:00:00,
2013-04-24 05:15:00,32.1,27.1,29.83,West,270,8.0,16.0,82,0.00,,,0.00,VWS V14.01,2013-04-24 10:15:00,
2013-04-24 05:30:00,31.4,26.8,29.83,West,270,7.0,17.0,83,0.00,,,0.00,VWS V14.01,2013-04-24 10:30:00,
2013-04-24 05:45:00,30.8,26.2,29.82,West,270,8.0,16.0,83,0.00,,,0.00,VWS V14.01,2013-04-24 10:45:00,
2013-04-24 06:00:00,29.9,25.3,29.82,WNW,292,7.0,16.0,83,0.00,,,0.00,VWS V14.01,2013-04-24 11:00:00,
2013-04-24 06:15:00,29.1,25.1,29.82,WNW,292,6.0,10.0,85,0.00,,,0.00,VWS V14.01,2013-04-24 11:15:00,
2013-04-24 06:30:00,28.6,24.6,29.82,WNW,292,6.0,10.0,85,0.00,,,0.00,VWS V14.01,2013-04-24 11:30:00,
2013-04-24 06:45:00,28.5,24.5,29.82,WNW,292,6.0,10.0,85,0.00,,,0.00,VWS V14.01,2013-04-24 11:45:00,
2013-04-24 07:00:00,28.5,24.8,29.82,WNW,292,5.0,10.0,86,0.00,,,0.00,VWS V14.01,2013-04-24 12:00:00,
2013-04-24 07:15:00,29.0,25.0,29.82,WNW,292,7.0,12.0,85,0.00,,,0.00,VWS V14.01,2013-04-24 12:15:00,
2013-04-24 07:30:00,29.8,25.2,29.81,WNW,292,8.0,15.0,83,0.00,,,0.00,VWS V14.01,2013-04-24 12:30:00,
2013-04-24 07:45:00,29.3,24.4,29.82,West,270,8.0,17.0,82,0.00,,,0.00,VWS V14.01,2013-04-24 12:45:00,
2013-04-24 08:00:00,29.5,24.9,29.81,WNW,292,8.0,16.0,83,0.00,,,0.00,VWS V14.01,2013-04-24 13:00:00,
2013-04-24 08:15:00,30.5,25.6,29.81,WNW,292,7.0,13.0,82,0.00,,,0.00,VWS V14.01,2013-04-24 13:15:00,
2013-04-24 08:30:00,31.3,26.1,29.82,WNW,292,8.0,15.0,81,0.00,,,0.00,VWS V14.01,2013-04-24 13:30:00,
2013-04-24 08:45:00,32.2,26.6,29.82,WNW,292,9.0,15.0,80,0.00,,,0.00,VWS V14.01,2013-04-24 13:45:00,
2013-04-24 09:00:00,31.8,26.9,29.82,WNW,292,10.0,19.0,82,0.00,,,0.00,VWS V14.01,2013-04-24 14:00:00,
2013-04-24 09:15:00,32.5,27.5,29.82,WNW,292,10.0,18.0,82,0.00,,,0.00,VWS V14.01,2013-04-24 14:15:00,
2013-04-24 09:30:00,32.2,27.5,29.82,WNW,292,12.0,21.0,83,0.00,,,0.00,VWS V14.01,2013-04-24 14:30:00,
2013-04-24 09:45:00,31.7,28.2,29.82,NW,315,15.0,22.0,87,0.00,,,0.00,VWS V14.01,2013-04-24 14:45:00,
2013-04-24 10:00:00,32.0,29.0,29.82,NW,315,15.0,24.0,89,0.00,,,0.00,VWS V14.01,2013-04-24 15:00:00,
2013-04-24 10:15:00,31.3,28.9,29.83,NW,315,15.0,28.0,91,0.00,,,0.00,VWS V14.01,2013-04-24 15:15:00,
2013-04-24 10:30:00,31.5,28.8,29.83,NW,315,19.0,33.0,90,0.00,,,0.00,VWS V14.01,2013-04-24 15:30:00,
2013-04-24 10:45:00,31.9,28.1,29.83,NW,315,20.0,32.0,86,0.00,,,0.00,VWS V14.01,2013-04-24 15:45:00,
2013-04-24 11:00:00,31.7,27.6,29.84,NW,315,21.0,32.0,85,0.00,,,0.00,VWS V14.01,2013-04-24 16:00:00,
2013-04-24 11:15:00,31.6,27.0,29.85,NW,315,21.0,33.0,83,0.00,,,0.00,VWS V14.01,2013-04-24 16:15:00,
2013-04-24 11:30:00,31.5,28.8,29.83,NW,315,19.0,33.0,90,0.00,,,0.00,VWS V14.01,2013-04-24 16:30:00,
2013-04-24 11:32:00,31.6,27.0,29.85,NW,315,21.0,33.0,83,0.00,,,0.00,VWS V14.01,2013-04-24 16:32:00,
2013-04-24 11:37:00,31.6,25.5,29.87,NW,315,21.0,35.0,78,0.00,,,0.00,VWS V14.01,2013-04-24 16:37:00,
2013-04-24 11:42:00,31.3,25.5,29.87,NW,307,17.0,35.0,79,0.00,,,0.00,VWS V14.01,2013-04-24 16:42:00,
2013-04-24 11:45:00,31.9,28.1,29.83,NW,315,20.0,32.0,86,0.00,,,0.00,VWS V14.01,2013-04-24 16:45:00,
2013-04-24 11:47:00,30.8,24.7,29.87,NNW,329,21.0,32.0,78,0.00,,,0.00,VWS V14.01,2013-04-24 16:47:00,
2013-04-24 11:52:00,31.0,24.5,29.87,WNW,294,22.0,33.0,77,0.00,,,0.00,VWS V14.01,2013-04-24 16:52:00,
2013-04-24 11:57:00,30.3,22.9,29.88,NW,320,24.0,33.0,74,0.00,,,0.00,VWS V14.01,2013-04-24 16:57:00,
2013-04-24 12:00:00,31.7,27.6,29.84,NW,315,21.0,32.0,85,0.00,,,0.00,VWS V14.01,2013-04-24 17:00:00,
2013-04-24 12:02:00,30.5,22.8,29.88,North,355,21.0,29.0,73,0.00,,,0.00,VWS V14.01,2013-04-24 17:02:00,
2013-04-24 12:07:00,30.8,22.1,29.88,NNW,340,14.0,29.0,70,0.00,,,0.00,VWS V14.01,2013-04-24 17:07:00,
2013-04-24 12:12:00,31.4,22.0,29.88,NW,313,26.0,30.0,68,0.00,,,0.00,VWS V14.01,2013-04-24 17:12:00,
2013-04-24 12:15:00,31.6,27.0,29.85,NW,315,21.0,33.0,83,0.00,,,0.00,VWS V14.01,2013-04-24 17:15:00,
2013-04-24 12:17:00,32.2,24.1,29.88,NNW,344,16.0,22.0,72,0.00,,,0.00,VWS V14.01,2013-04-24 17:17:00,
2013-04-24 12:22:00,31.6,23.9,29.89,NNW,332,17.0,32.0,73,0.00,,,0.00,VWS V14.01,2013-04-24 17:22:00,
2013-04-24 12:27:00,31.1,23.4,29.89,WNW,302,18.0,32.0,73,0.00,,,0.00,VWS V14.01,2013-04-24 17:27:00,
2013-04-24 12:32:00,31.6,23.5,29.90,NW,314,22.0,23.0,72,0.00,,,0.00,VWS V14.01,2013-04-24 17:32:00,
2013-04-24 12:37:00,31.2,22.8,29.90,NW,317,21.0,31.0,71,0.00,,,0.00,VWS V14.01,2013-04-24 17:37:00,
2013-04-24 12:42:00,30.6,22.6,29.90,NW,321,18.0,34.0,72,0.00,,,0.00,VWS V14.01,2013-04-24 17:42:00,
2013-04-24 12:45:00,30.9,24.5,29.87,NNE,21,19.0,38.0,77,0.00,,,0.00,VWS V14.01,2013-04-24 17:45:00,
2013-04-24 12:47:00,31.2,23.8,29.90,NNE,15,13.0,26.0,74,0.00,,,0.00,VWS V14.01,2013-04-24 17:47:00,
2013-04-24 12:52:00,30.4,22.4,29.90,NNW,342,17.0,32.0,72,0.00,,,0.00,VWS V14.01,2013-04-24 17:52:00,
2013-04-24 12:57:00,30.5,22.5,29.90,NNW,332,26.0,36.0,72,0.00,,,0.00,VWS V14.01,2013-04-24 17:57:00,
2013-04-24 13:00:00,30.4,22.7,29.87,NW,309,21.0,34.0,73,0.00,,,0.00,VWS V14.01,2013-04-24 18:00:00,
2013-04-24 13:02:00,30.4,22.0,29.90,NW,313,33.0,36.0,71,0.00,,,0.00,VWS V14.01,2013-04-24 18:02:00,
2013-04-24 13:07:00,30.5,21.8,29.90,WNW,298,32.0,36.0,70,0.00,,,0.00,VWS V14.01,2013-04-24 18:07:00,
2013-04-24 13:12:00,30.7,22.3,29.90,NW,322,13.0,36.0,71,0.00,,,0.00,VWS V14.01,2013-04-24 18:12:00,
2013-04-24 13:15:00,32.0,23.2,29.88,NW,311,19.0,32.0,70,0.00,,,0.00,VWS V14.01,2013-04-24 18:15:00,
2013-04-24 13:17:00,30.3,20.6,29.90,NW,309,29.0,34.0,67,0.00,,,0.00,VWS V14.01,2013-04-24 18:17:00,
2013-04-24 13:22:00,30.4,20.3,29.90,NW,317,27.0,37.0,66,0.00,,,0.00,VWS V14.01,2013-04-24 18:22:00,
2013-04-24 13:27:00,30.3,20.2,29.91,NW,309,20.0,37.0,66,0.00,,,0.00,VWS V14.01,2013-04-24 18:27:00,
2013-04-24 13:30:00,31.6,23.9,29.90,NW,320,20.0,32.0,73,0.00,,,0.00,VWS V14.01,2013-04-24 18:30:00,
2013-04-24 13:32:00,30.7,21.0,29.91,NW,326,17.0,31.0,67,0.00,,,0.00,VWS V14.01,2013-04-24 18:32:00,
2013-04-24 13:37:00,30.4,21.4,29.91,NW,307,20.0,32.0,69,0.00,,,0.00,VWS V14.01,2013-04-24 18:37:00,
2013-04-24 13:42:00,30.2,20.5,29.92,NW,326,25.0,35.0,67,0.00,,,0.00,VWS V14.01,2013-04-24 18:42:00,
2013-04-24 13:45:00,31.0,23.6,29.90,NW,315,18.0,34.0,74,0.00,,,0.00,VWS V14.01,2013-04-24 18:45:00,
2013-04-24 13:47:00,30.4,21.4,29.91,NW,319,24.0,34.0,69,0.00,,,0.00,VWS V14.01,2013-04-24 18:47:00,
2013-04-24 13:52:00,29.9,20.2,29.91,NW,315,21.0,37.0,67,0.00,,,0.00,VWS V14.01,2013-04-24 18:52:00,
2013-04-24 13:57:00,30.2,21.2,29.91,NW,319,20.0,37.0,69,0.00,,,0.00,VWS V14.01,2013-04-24 18:57:00,
2013-04-24 14:00:00,30.5,22.5,29.90,NNW,332,26.0,36.0,72,0.00,,,0.00,VWS V14.01,2013-04-24 19:00:00,
2013-04-24 14:02:00,30.4,21.4,29.91,WNW,302,18.0,25.0,69,0.00,,,0.00,VWS V14.01,2013-04-24 19:02:00,
2013-04-24 14:07:00,31.4,22.7,29.92,NW,313,14.0,35.0,70,0.00,,,0.00,VWS V14.01,2013-04-24 19:07:00,
2013-04-24 14:12:00,31.2,22.1,29.92,NW,313,20.0,35.0,69,0.00,,,0.00,VWS V14.01,2013-04-24 19:12:00,
2013-04-24 14:15:00,30.4,20.7,29.90,NW,315,26.0,36.0,67,0.00,,,0.00,VWS V14.01,2013-04-24 19:15:00,
2013-04-24 14:17:00,31.2,22.8,29.92,NW,324,25.0,27.0,71,0.00,,,0.00,VWS V14.01,2013-04-24 19:17:00,
2013-04-24 14:22:00,30.8,22.4,29.92,NNW,331,12.0,33.0,71,0.00,,,0.00,VWS V14.01,2013-04-24 19:22:00,
2013-04-24 14:27:00,30.6,21.9,29.92,NNW,338,21.0,33.0,70,0.00,,,0.00,VWS V14.01,2013-04-24 19:27:00,
2013-04-24 14:30:00,30.8,21.7,29.91,NNW,337,21.0,37.0,69,0.00,,,0.00,VWS V14.01,2013-04-24 19:30:00,
2013-04-24 14:32:00,30.4,21.0,29.93,NW,309,14.0,34.0,68,0.00,,,0.00,VWS V14.01,2013-04-24 19:32:00,
2013-04-24 14:37:00,30.2,21.2,29.92,NNW,336,18.0,35.0,69,0.00,,,0.00,VWS V14.01,2013-04-24 19:37:00,
2013-04-24 14:42:00,30.7,21.3,29.92,NW,316,23.0,35.0,68,0.00,,,0.00,VWS V14.01,2013-04-24 19:42:00,
2013-04-24 14:45:00,30.4,21.0,29.91,NNW,332,21.0,35.0,68,0.00,,,0.00,VWS V14.01,2013-04-24 19:45:00,
2013-04-24 14:47:00,30.3,21.6,29.92,North,360,17.0,27.0,70,0.00,,,0.00,VWS V14.01,2013-04-24 19:47:00,
2013-04-24 14:52:00,30.7,22.3,29.93,NW,313,18.0,29.0,71,0.00,,,0.00,VWS V14.01,2013-04-24 19:52:00,
2013-04-24 14:57:00,30.3,21.6,29.93,NW,317,14.0,36.0,70,0.00,,,0.00,VWS V14.01,2013-04-24 19:57:00,
2013-04-24 15:00:00,30.2,21.5,29.91,NNW,335,16.0,37.0,70,0.00,,,0.00,VWS V14.01,2013-04-24 20:00:00,
2013-04-24 15:02:00,30.1,21.8,29.93,NW,325,26.0,30.0,71,0.00,,,0.00,VWS V14.01,2013-04-24 20:02:00,
2013-04-24 15:07:00,30.1,21.8,29.93,NW,317,28.0,33.0,71,0.00,,,0.00,VWS V14.01,2013-04-24 20:07:00,
2013-04-24 15:12:00,30.7,22.0,29.93,North,5,15.0,33.0,70,0.00,,,0.00,VWS V14.01,2013-04-24 20:12:00,
2013-04-24 15:15:00,31.2,22.8,29.92,WNW,298,17.0,35.0,71,0.00,,,0.00,VWS V14.01,2013-04-24 20:15:00,
2013-04-24 15:17:00,30.7,22.3,29.94,NW,309,21.0,23.0,71,0.00,,,0.00,VWS V14.01,2013-04-24 20:17:00,
2013-04-24 15:22:00,30.7,22.3,29.94,NW,321,26.0,37.0,71,0.00,,,0.00,VWS V14.01,2013-04-24 20:22:00,
2013-04-24 15:27:00,30.6,22.6,29.94,NW,318,17.0,37.0,72,0.00,,,0.00,VWS V14.01,2013-04-24 20:27:00,
2013-04-24 15:30:00,30.4,20.7,29.92,NNW,346,24.0,36.0,67,0.00,,,0.00,VWS V14.01,2013-04-24 20:30:00,
2013-04-24 15:32:00,30.6,22.2,29.95,NW,305,20.0,31.0,71,0.00,,,0.00,VWS V14.01,2013-04-24 20:32:00,
2013-04-24 15:37:00,30.7,22.3,29.95,NW,315,17.0,31.0,71,0.00,,,0.00,VWS V14.01,2013-04-24 20:37:00,
2013-04-24 15:42:00,30.3,22.3,29.95,NW,309,33.0,34.0,72,0.00,,,0.00,VWS V14.01,2013-04-24 20:42:00,
2013-04-24 15:45:00,30.4,21.7,29.92,NW,313,26.0,35.0,70,0.00,,,0.00,VWS V14.01,2013-04-24 20:45:00,
2013-04-24 15:47:00,30.4,22.0,29.95,NW,304,20.0,32.0,71,0.00,,,0.00,VWS V14.01,2013-04-24 20:47:00,
2013-04-24 15:52:00,31.2,22.5,29.95,NW,323,16.0,32.0,70,0.00,,,0.00,VWS V14.01,2013-04-24 20:52:00,
2013-04-24 15:57:00,31.0,22.3,29.95,WNW,299,26.0,34.0,70,0.00,,,0.00,VWS V14.01,2013-04-24 20:57:00,
2013-04-24 16:00:00,30.3,22.3,29.94,NW,315,22.0,36.0,72,0.00,,,0.00,VWS V14.01,2013-04-24 21:00:00,
2013-04-24 16:02:00,30.9,21.8,29.95,NW,317,21.0,32.0,69,0.00,,,0.00,VWS V14.01,2013-04-24 21:02:00,
2013-04-24 16:07:00,31.2,22.8,29.95,North,360,21.0,36.0,71,0.00,,,0.00,VWS V14.01,2013-04-24 21:07:00,
2013-04-24 16:12:00,30.8,21.7,29.95,NW,315,28.0,36.0,69,0.00,,,0.00,VWS V14.01,2013-04-24 21:12:00,
2013-04-24 16:15:00,30.5,21.5,29.93,NNE,24,19.0,33.0,69,0.00,,,0.00,VWS V14.01,2013-04-24 21:15:00,
2013-04-24 16:17:00,31.1,22.0,29.96,NW,323,33.0,35.0,69,0.00,,,0.00,VWS V14.01,2013-04-24 21:17:00,
2013-04-24 16:22:00,31.0,22.3,29.96,West,273,19.0,35.0,70,0.00,,,0.00,VWS V14.01,2013-04-24 21:22:00,
2013-04-24 16:27:00,31.2,22.5,29.95,NW,304,23.0,35.0,70,0.00,,,0.00,VWS V14.01,2013-04-24 21:27:00,
2013-04-24 16:30:00,30.5,22.5,29.94,NW,311,22.0,37.0,72,0.00,,,0.00,VWS V14.01,2013-04-24 21:30:00,
2013-04-24 16:32:00,31.5,23.1,29.96,WNW,298,14.0,22.0,71,0.00,,,0.00,VWS V14.01,2013-04-24 21:32:00,
2013-04-24 16:37:00,31.5,22.8,29.96,NW,314,15.0,31.0,70,0.00,,,0.00,VWS V14.01,2013-04-24 21:37:00,
2013-04-24 16:42:00,31.4,23.0,29.96,NW,313,8.0,31.0,71,0.00,,,0.00,VWS V14.01,2013-04-24 21:42:00,
2013-04-24 16:45:00,30.4,22.4,29.95,NW,322,27.0,36.0,72,0.00,,,0.00,VWS V14.01,2013-04-24 21:45:00,
2013-04-24 16:47:00,31.5,22.1,29.96,NW,312,22.0,34.0,68,0.00,,,0.00,VWS V14.01,2013-04-24 21:47:00,
2013-04-24 16:52:00,31.5,23.1,29.96,NW,323,16.0,34.0,71,0.00,,,0.00,VWS V14.01,2013-04-24 21:52:00,
2013-04-24 16:57:00,31.5,23.1,29.96,NW,317,22.0,34.0,71,0.00,,,0.00,VWS V14.01,2013-04-24 21:57:00,
2013-04-24 17:00:00,30.8,21.7,29.95,NW,321,31.0,34.0,69,0.00,,,0.00,VWS V14.01,2013-04-24 22:00:00,
2013-04-24 17:02:00,31.9,23.5,29.96,WSW,247,20.0,21.0,71,0.00,,,0.00,VWS V14.01,2013-04-24 22:02:00,
2013-04-24 17:07:00,31.2,21.8,29.96,NW,304,15.0,32.0,68,0.00,,,0.00,VWS V14.01,2013-04-24 22:07:00,
2013-04-24 17:12:00,31.5,22.4,29.97,NW,306,17.0,32.0,69,0.00,,,0.00,VWS V14.01,2013-04-24 22:12:00,
2013-04-24 17:15:00,31.0,21.9,29.95,NW,306,19.0,36.0,69,0.00,,,0.00,VWS V14.01,2013-04-24 22:15:00,
2013-04-24 17:17:00,31.6,23.2,29.97,NW,320,24.0,27.0,71,0.00,,,0.00,VWS V14.01,2013-04-24 22:17:00,
2013-04-24 17:21:00,31.3,22.6,29.97,NW,325,23.0,27.0,70,0.00,,,0.00,VWS V14.01,2013-04-24 22:21:00,
2013-04-24 17:26:00,31.2,22.1,29.97,WNW,290,19.0,31.0,69,0.00,,,0.00,VWS V14.01,2013-04-24 22:26:00,
2013-04-24 17:30:00,31.4,22.7,29.96,NNW,327,19.0,35.0,70,0.00,,,0.00,VWS V14.01,2013-04-24 22:30:00,
2013-04-24 17:31:00,31.7,23.3,29.97,NW,315,22.0,27.0,71,0.00,,,0.00,VWS V14.01,2013-04-24 22:31:00,
2013-04-24 17:36:00,32.1,23.7,29.97,WNW,299,18.0,27.0,71,0.00,,,0.00,VWS V14.01,2013-04-24 22:36:00,
2013-04-24 17:41:00,32.0,22.9,29.97,NW,313,22.0,30.0,69,0.00,,,0.00,VWS V14.01,2013-04-24 22:41:00,
2013-04-24 17:45:00,31.7,23.0,29.96,WNW,294,22.0,34.0,70,0.00,,,0.00,VWS V14.01,2013-04-24 22:45:00,
2013-04-24 17:46:00,31.8,22.7,29.97,WNW,297,19.0,23.0,69,0.00,,,0.00,VWS V14.01,2013-04-24 22:46:00,
2013-04-24 17:51:00,31.2,22.5,29.98,NW,313,16.0,27.0,70,0.00,,,0.00,VWS V14.01,2013-04-24 22:51:00,
2013-04-24 17:56:00,30.7,21.3,29.98,NW,315,22.0,31.0,68,0.00,,,0.00,VWS V14.01,2013-04-24 22:56:00,
2013-04-24 18:00:00,31.7,22.6,29.96,NW,317,17.0,34.0,69,0.00,,,0.00,VWS V14.01,2013-04-24 23:00:00,
2013-04-24 18:01:00,30.8,22.1,29.98,NW,306,17.0,22.0,70,0.00,,,0.00,VWS V14.01,2013-04-24 23:01:00,
2013-04-24 18:06:00,30.6,21.5,29.98,WNW,296,18.0,28.0,69,0.00,,,0.00,VWS V14.01,2013-04-24 23:06:00,
2013-04-24 18:11:00,30.3,21.3,29.97,NW,309,18.0,28.0,69,0.00,,,0.00,VWS V14.01,2013-04-24 23:11:00,
2013-04-24 18:15:00,31.5,22.8,29.97,WNW,294,14.0,32.0,70,0.00,,,0.00,VWS V14.01,2013-04-24 23:15:00,
2013-04-24 18:16:00,30.2,21.8,29.98,NNW,333,19.0,20.0,71,0.00,,,0.00,VWS V14.01,2013-04-24 23:16:00,
2013-04-24 18:21:00,30.7,22.0,29.98,NW,313,18.0,27.0,70,0.00,,,0.00,VWS V14.01,2013-04-24 23:21:00,
2013-04-24 18:26:00,31.0,21.9,29.98,NW,320,20.0,27.0,69,0.00,,,0.00,VWS V14.01,2013-04-24 23:26:00,
2013-04-24 18:30:00,31.5,22.8,29.97,NW,304,26.0,31.0,70,0.00,,,0.00,VWS V14.01,2013-04-24 23:30:00,
2013-04-24 18:31:00,31.1,22.0,29.98,NW,312,15.0,25.0,69,0.00,,,0.00,VWS V14.01,2013-04-24 23:31:00,
2013-04-24 18:36:00,31.3,22.2,29.98,NW,321,17.0,25.0,69,0.00,,,0.00,VWS V14.01,2013-04-24 23:36:00,
2013-04-24 18:41:00,31.5,21.7,29.98,NW,313,16.0,25.0,67,0.00,,,0.00,VWS V14.01,2013-04-24 23:41:00,
2013-04-24 18:45:00,31.9,22.8,29.97,NW,314,23.0,30.0,69,0.00,,,0.00,VWS V14.01,2013-04-24 23:45:00,
2013-04-24 18:46:00,31.6,21.8,29.98,NW,316,18.0,22.0,67,0.00,,,0.00,VWS V14.01,2013-04-24 23:46:00,
2013-04-24 18:51:00,31.2,21.8,29.98,NW,313,23.0,24.0,68,0.00,,,0.00,VWS V14.01,2013-04-24 23:51:00,
2013-04-24 18:56:00,31.1,21.7,29.98,NW,317,17.0,26.0,68,0.00,,,0.00,VWS V14.01,2013-04-24 23:56:00,
2013-04-24 19:00:00,30.8,22.1,29.98,NW,315,18.0,31.0,70,0.00,,,0.00,VWS V14.01,2013-04-25 00:00:00,
2013-04-24 19:01:00,31.4,21.6,29.98,NW,308,16.0,19.0,67,0.00,,,0.00,VWS V14.01,2013-04-25 00:01:00,
2013-04-24 19:06:00,31.5,21.7,29.97,NNW,336,8.0,19.0,67,0.00,,,0.00,VWS V14.01,2013-04-25 00:06:00,
2013-04-24 19:11:00,31.4,21.6,29.97,NW,320,12.0,24.0,67,0.00,,,0.00,VWS V14.01,2013-04-25 00:11:00,
2013-04-24 19:15:00,30.2,21.5,29.97,NNW,327,16.0,28.0,70,0.00,,,0.00,VWS V14.01,2013-04-25 00:15:00,
2013-04-24 19:16:00,31.1,21.3,29.97,NW,312,17.0,21.0,67,0.00,,,0.00,VWS V14.01,2013-04-25 00:16:00,
2013-04-24 19:21:00,30.8,21.0,29.97,NW,308,19.0,24.0,67,0.00,,,0.00,VWS V14.01,2013-04-25 00:21:00,
2013-04-24 19:26:00,30.8,21.0,29.98,NW,315,19.0,24.0,67,0.00,,,0.00,VWS V14.01,2013-04-25 00:26:00,
2013-04-24 19:30:00,31.2,22.5,29.98,NW,324,21.0,27.0,70,0.00,,,0.00,VWS V14.01,2013-04-25 00:30:00,
2013-04-24 19:31:00,30.8,21.7,29.98,NW,314,17.0,18.0,69,0.00,,,0.00,VWS V14.01,2013-04-25 00:31:00,
2013-04-24 19:36:00,30.7,21.0,29.98,NW,318,10.0,19.0,67,0.00,,,0.00,VWS V14.01,2013-04-25 00:36:00,
2013-04-24 19:41:00,30.8,21.0,29.98,NNW,340,10.0,19.0,67,0.00,,,0.00,VWS V14.01,2013-04-25 00:41:00,
2013-04-24 19:45:00,31.6,22.2,29.98,NW,317,12.0,25.0,68,0.00,,,0.00,VWS V14.01,2013-04-25 00:45:00,
2013-04-24 19:46:00,30.6,20.9,29.98,NW,319,17.0,19.0,67,0.00,,,0.00,VWS V14.01,2013-04-25 00:46:00,
2013-04-24 19:51:00,30.5,21.1,29.98,NNW,336,10.0,19.0,68,0.00,,,0.00,VWS V14.01,2013-04-25 00:51:00,
2013-04-24 19:56:00,30.2,20.8,29.98,NW,326,15.0,19.0,68,0.00,,,0.00,VWS V14.01,2013-04-25 00:56:00,
2013-04-24 20:00:00,31.3,22.2,29.98,NW,324,13.0,26.0,69,0.00,,,0.00,VWS V14.01,2013-04-25 01:00:00,
2013-04-24 20:01:00,30.1,21.1,29.98,NW,311,11.0,17.0,69,0.00,,,0.00,VWS V14.01,2013-04-25 01:01:00,
2013-04-24 20:06:00,29.9,21.2,29.97,NW,309,12.0,17.0,70,0.00,,,0.00,VWS V14.01,2013-04-25 01:06:00,
2013-04-24 20:11:00,29.7,21.0,29.98,NW,309,10.0,17.0,70,0.00,,,0.00,VWS V14.01,2013-04-25 01:11:00,
2013-04-24 20:15:00,31.2,21.8,29.98,NW,319,21.0,24.0,68,0.00,,,0.00,VWS V14.01,2013-04-25 01:15:00,
2013-04-24 20:16:00,29.5,21.2,29.98,NW,305,12.0,12.0,71,0.00,,,0.00,VWS V14.01,2013-04-25 01:16:00,
2013-04-24 20:21:00,29.3,21.0,29.98,NW,319,9.0,16.0,71,0.00,,,0.00,VWS V14.01,2013-04-25 01:21:00,
2013-04-24 20:26:00,29.0,20.7,29.98,North,350,6.0,16.0,71,0.00,,,0.00,VWS V14.01,2013-04-25 01:26:00,
2013-04-24 20:30:00,30.8,21.4,29.98,NNW,342,8.0,24.0,68,0.00,,,0.00,VWS V14.01,2013-04-25 01:30:00,
2013-04-24 20:31:00,28.8,20.8,29.98,NW,311,4.0,9.0,72,0.00,,,0.00,VWS V14.01,2013-04-25 01:31:00,
2013-04-24 20:36:00,28.6,20.6,29.97,NW,320,4.0,9.0,72,0.00,,,0.00,VWS V14.01,2013-04-25 01:36:00,
2013-04-24 20:41:00,28.4,20.8,29.97,NW,314,8.0,12.0,73,0.00,,,0.00,VWS V14.01,2013-04-25 01:41:00,
2013-04-24 20:45:00,30.6,21.2,29.98,NW,313,18.0,19.0,68,0.00,,,0.00,VWS V14.01,2013-04-25 01:45:00,
2013-04-24 20:46:00,28.3,20.7,29.97,NW,312,5.0,9.0,73,0.00,,,0.00,VWS V14.01,2013-04-25 01:46:00,
2013-04-24 20:51:00,28.1,20.8,29.98,NW,322,4.0,11.0,74,0.00,,,0.00,VWS V14.01,2013-04-25 01:51:00,
2013-04-24 20:56:00,28.0,20.7,29.97,NW,309,8.0,11.0,74,0.00,,,0.00,VWS V14.01,2013-04-25 01:56:00,
2013-04-24 21:00:00,30.1,21.1,29.98,NNW,335,8.0,19.0,69,0.00,,,0.00,VWS V14.01,2013-04-25 02:00:00,
2013-04-24 21:01:00,27.7,20.4,29.98,NW,305,6.0,7.0,74,0.00,,,0.00,VWS V14.01,2013-04-25 02:01:00,
2013-04-24 21:06:00,27.5,20.5,29.98,NW,307,4.0,7.0,75,0.00,,,0.00,VWS V14.01,2013-04-25 02:06:00,
2013-04-24 21:11:00,27.4,20.8,29.98,NW,309,5.0,7.0,76,0.00,,,0.00,VWS V14.01,2013-04-25 02:11:00,
2013-04-24 21:15:00,29.5,20.8,29.98,NNW,336,7.0,17.0,70,0.00,,,0.00,VWS V14.01,2013-04-25 02:15:00,
2013-04-24 21:16:00,27.3,20.6,29.98,WNW,301,3.0,9.0,76,0.00,,,0.00,VWS V14.01,2013-04-25 02:16:00,
2013-04-24 21:21:00,27.3,20.6,29.98,WNW,300,3.0,11.0,76,0.00,,,0.00,VWS V14.01,2013-04-25 02:21:00,
2013-04-24 21:26:00,27.1,20.5,29.98,WNW,294,4.0,11.0,76,0.00,,,0.00,VWS V14.01,2013-04-25 02:26:00,
2013-04-24 21:30:00,28.9,20.9,29.98,NW,321,4.0,16.0,72,0.00,,,0.00,VWS V14.01,2013-04-25 02:30:00,
2013-04-24 21:31:00,26.9,20.6,29.99,WNW,292,3.0,4.0,77,0.00,,,0.00,VWS V14.01,2013-04-25 02:31:00,
2013-04-24 21:36:00,26.9,20.6,29.99,WNW,290,2.0,5.0,77,0.00,,,0.00,VWS V14.01,2013-04-25 02:36:00,
2013-04-24 21:41:00,26.7,20.4,29.99,WNW,290,5.0,6.0,77,0.00,,,0.00,VWS V14.01,2013-04-25 02:41:00,
2013-04-24 21:45:00,28.3,20.7,29.98,NW,317,8.0,12.0,73,0.00,,,0.00,VWS V14.01,2013-04-25 02:45:00,
2013-04-24 21:46:00,26.6,20.3,29.99,West,281,3.0,4.0,77,0.00,,,0.00,VWS V14.01,2013-04-25 02:46:00,
2013-04-24 21:51:00,26.6,20.3,29.99,West,276,3.0,6.0,77,0.00,,,0.00,VWS V14.01,2013-04-25 02:51:00,
2013-04-24 21:56:00,26.6,20.3,29.99,West,273,2.0,6.0,77,0.00,,,0.00,VWS V14.01,2013-04-25 02:56:00,
2013-04-24 22:00:00,27.8,20.5,29.98,NW,308,6.0,11.0,74,0.00,,,0.00,VWS V14.01,2013-04-25 03:00:00,
2013-04-24 22:01:00,26.4,20.1,29.99,West,273,2.0,4.0,77,0.00,,,0.00,VWS V14.01,2013-04-25 03:01:00,
2013-04-24 22:06:00,26.3,20.3,30.00,West,273,1.0,4.0,78,0.00,,,0.00,VWS V14.01,2013-04-25 03:06:00,
2013-04-24 22:11:00,26.0,20.0,30.00,WSW,246,5.0,5.0,78,0.00,,,0.00,VWS V14.01,2013-04-25 03:11:00,
2013-04-24 22:15:00,27.3,20.7,29.98,NW,311,6.0,10.0,76,0.00,,,0.00,VWS V14.01,2013-04-25 03:15:00,
2013-04-24 22:16:00,25.6,20.2,30.00,WSW,246,2.0,3.0,80,0.00,,,0.00,VWS V14.01,2013-04-25 03:16:00,
2013-04-24 22:21:00,25.3,19.9,30.00,SW,233,4.0,5.0,80,0.00,,,0.00,VWS V14.01,2013-04-25 03:21:00,
2013-04-24 22:26:00,24.9,19.8,30.00,SW,232,3.0,5.0,81,0.00,,,0.00,VWS V14.01,2013-04-25 03:26:00,
2013-04-24 22:30:00,26.9,20.6,29.98,WNW,293,4.0,11.0,77,0.00,,,0.00,VWS V14.01,2013-04-25 03:30:00,
2013-04-24 22:31:00,24.8,19.7,29.99,SW,232,2.0,2.0,81,0.00,,,0.00,VWS V14.01,2013-04-25 03:31:00,
2013-04-24 22:36:00,24.6,19.8,29.99,SW,232,0.0,2.0,82,0.00,,,0.00,VWS V14.01,2013-04-25 03:36:00,
2013-04-24 22:41:00,24.7,19.9,29.99,SW,232,2.0,3.0,82,0.00,,,0.00,VWS V14.01,2013-04-25 03:41:00,
2013-04-24 22:45:00,26.7,20.4,29.99,WNW,288,2.0,6.0,77,0.00,,,0.00,VWS V14.01,2013-04-25 03:45:00,
2013-04-24 22:46:00,24.9,20.1,29.99,SW,232,0.0,0.0,82,0.00,,,0.00,VWS V14.01,2013-04-25 03:46:00,
2013-04-24 22:51:00,25.0,20.2,29.99,SW,232,0.0,0.0,82,0.00,,,0.00,VWS V14.01,2013-04-25 03:51:00,
2013-04-24 22:56:00,25.0,20.2,29.99,SW,232,0.0,2.0,82,0.00,,,0.00,VWS V14.01,2013-04-25 03:56:00,
2013-04-24 23:00:00,26.5,20.2,29.99,West,273,2.0,6.0,77,0.00,,,0.00,VWS V14.01,2013-04-25 04:00:00,
2013-04-24 23:01:00,24.8,20.0,29.99,SW,232,0.0,0.0,82,0.00,,,0.00,VWS V14.01,2013-04-25 04:01:00,
2013-04-24 23:06:00,24.5,19.7,29.98,SW,232,0.0,0.0,82,0.00,,,0.00,VWS V14.01,2013-04-25 04:06:00,
2013-04-24 23:11:00,24.5,19.7,29.98,SW,232,0.0,0.0,82,0.00,,,0.00,VWS V14.01,2013-04-25 04:11:00,
2013-04-24 23:15:00,25.6,19.9,30.00,WSW,246,3.0,5.0,79,0.00,,,0.00,VWS V14.01,2013-04-25 04:15:00,
2013-04-24 23:16:00,24.5,20.0,29.98,SW,232,0.0,0.0,83,0.00,,,0.00,VWS V14.01,2013-04-25 04:16:00,
2013-04-24 23:21:00,24.5,20.0,29.98,SW,232,2.0,3.0,83,0.00,,,0.00,VWS V14.01,2013-04-25 04:21:00,
2013-04-24 23:26:00,24.4,19.9,29.98,SW,232,2.0,4.0,83,0.00,,,0.00,VWS V14.01,2013-04-25 04:26:00,
2013-04-24 23:30:00,24.8,19.7,29.99,SW,232,2.0,5.0,81,0.00,,,0.00,VWS V14.01,2013-04-25 04:30:00,
2013-04-24 23:31:00,24.2,19.7,29.98,SW,232,2.0,3.0,83,0.00,,,0.00,VWS V14.01,2013-04-25 04:31:00,
2013-04-24 23:36:00,24.1,19.6,29.98,SW,232,2.0,4.0,83,0.00,,,0.00,VWS V14.01,2013-04-25 04:36:00,
2013-04-24 23:41:00,24.0,19.5,29.97,SW,223,3.0,5.0,83,0.00,,,0.00,VWS V14.01,2013-04-25 04:41:00,
2013-04-24 23:45:00,24.9,20.1,29.99,SW,232,0.0,3.0,82,0.00,,,0.00,VWS V14.01,2013-04-25 04:45:00,
2013-04-24 23:46:00,24.0,19.5,29.97,SW,222,5.0,5.0,83,0.00,,,0.00,VWS V14.01,2013-04-25 04:46:00,
2013-04-24 23:51:00,23.9,19.4,29.97,SSW,213,3.0,6.0,83,0.00,,,0.00,VWS V14.01,2013-04-25 04:51:00,
2013-04-24 23:56:00,23.8,19.3,29.97,SSW,212,3.0,6.0,83,0.00,,,0.00,VWS V14.01,2013-04-25 04:56:00,